Time;durP1;ratioP1;P1;durP2;ratioP2;P2;SDS_P1;SDS_P2;PMS_P1;PMS_P2;Temp;Humidity;BMP_temperature;BMP_pressure;BME280_temperature;BME280_humidity;BME280_pressure;Samples;Min_cycle;Max_cycle;Signal;HPM_P1;HPM_P2
2023/01/26 00:01:52;;;;;;;141.50;81.77;;;;;;;-1.64;100.00;102448.06;5071927;28;20107;-58
2023/01/26 00:04:17;;;;;;;143.60;81.73;;;;;;;-1.72;100.00;102432.28;5070698;28;20078;-58
2023/01/26 00:06:43;;;;;;;148.93;82.67;;;;;;;-1.76;100.00;102430.50;5071988;28;20028;-58
2023/01/26 00:09:13;;;;;;;136.37;79.07;;;;;;;-1.72;100.00;102442.72;5087508;28;20040;-58
2023/01/26 00:11:38;;;;;;;134.73;77.38;;;;;;;-1.72;100.00;102431.41;5092034;28;20509;-58
2023/01/26 00:14:06;;;;;;;136.67;78.53;;;;;;;-1.78;100.00;102420.91;5056085;28;20036;-58
2023/01/26 00:16:31;;;;;;;135.70;77.83;;;;;;;-1.71;100.00;102423.59;5071987;28;20491;-58
2023/01/26 00:18:56;;;;;;;141.03;79.83;;;;;;;-1.69;100.00;102424.50;5071882;28;20091;-58
2023/01/26 00:21:23;;;;;;;137.00;80.20;;;;;;;-1.77;100.00;102420.91;5088473;28;20146;-58
2023/01/26 00:23:49;;;;;;;135.23;78.07;;;;;;;-1.76;100.00;102425.28;5079898;28;20048;-58
2023/01/26 00:26:23;;;;;;;138.90;80.03;;;;;;;-1.71;100.00;102425.34;5091899;28;20028;-58
2023/01/26 00:28:50;;;;;;;144.37;81.43;;;;;;;-1.73;100.00;102411.41;5079150;28;20012;-58
2023/01/26 00:31:21;;;;;;;139.57;79.83;;;;;;;-1.75;100.00;102411.38;5084777;28;20020;-58
2023/01/26 00:33:47;;;;;;;139.97;81.67;;;;;;;-1.59;100.00;102409.84;5091595;28;20028;-58
2023/01/26 00:36:14;;;;;;;129.57;76.30;;;;;;;-1.69;100.00;102410.59;5090539;28;20073;-58
2023/01/26 00:38:41;;;;;;;130.70;78.20;;;;;;;-1.66;100.00;102401.06;5091149;28;20099;-58
2023/01/26 00:41:06;;;;;;;135.40;78.27;;;;;;;-1.64;100.00;102399.38;5080623;28;20024;-59
2023/01/26 00:43:32;;;;;;;132.37;76.80;;;;;;;-1.58;100.00;102400.31;5090861;28;20073;-58
2023/01/26 00:45:57;;;;;;;136.70;80.27;;;;;;;-1.66;100.00;102388.03;5086005;28;20016;-58
2023/01/26 00:48:23;;;;;;;128.63;76.27;;;;;;;-1.62;100.00;102394.16;5089401;28;20085;-58
2023/01/26 00:50:55;;;;;;;130.60;76.87;;;;;;;-1.60;100.00;102392.44;5077252;28;20031;-58
2023/01/26 00:53:20;;;;;;;128.30;76.67;;;;;;;-1.58;100.00;102395.09;5080170;28;20029;-59
2023/01/26 00:55:46;;;;;;;130.30;76.07;;;;;;;-1.54;100.00;102392.50;5090785;28;20073;-58
2023/01/26 00:58:11;;;;;;;123.70;75.20;;;;;;;-1.52;100.00;102389.94;5092297;28;20092;-59
2023/01/26 01:00:37;;;;;;;125.13;75.30;;;;;;;-1.49;100.00;102375.19;5075244;28;20028;-58
2023/01/26 01:03:06;;;;;;;123.03;75.37;;;;;;;-1.50;100.00;102377.75;5075486;28;20471;-58
2023/01/26 01:05:32;;;;;;;121.00;74.20;;;;;;;-1.57;100.00;102365.53;5091567;28;20020;-58
2023/01/26 01:07:58;;;;;;;128.03;74.73;;;;;;;-1.53;100.00;102370.81;5103165;28;20406;-58
2023/01/26 01:10:26;;;;;;;126.57;74.20;;;;;;;-1.49;100.00;102374.31;5111796;28;20020;-58
2023/01/26 01:12:51;;;;;;;117.60;73.43;;;;;;;-1.48;100.00;102370.84;5095553;28;20051;-58
2023/01/26 01:15:17;;;;;;;114.03;72.00;;;;;;;-1.54;100.00;102369.03;5076758;28;20471;-59
2023/01/26 01:17:42;;;;;;;117.13;71.83;;;;;;;-1.50;100.00;102367.31;5095323;28;20069;-59
2023/01/26 01:20:09;;;;;;;119.67;72.70;;;;;;;-1.52;100.00;102363.84;5095179;28;20131;-58
2023/01/26 01:22:35;;;;;;;119.90;72.47;;;;;;;-1.38;100.00;102372.72;5095772;28;20425;-58
2023/01/26 01:25:01;;;;;;;119.37;73.67;;;;;;;-1.39;100.00;102381.38;5094703;28;20024;-58
2023/01/26 01:27:29;;;;;;;112.43;71.07;;;;;;;-1.40;100.00;102370.06;5094123;28;20047;-58
2023/01/26 01:29:54;;;;;;;111.37;69.93;;;;;;;-1.39;100.00;102370.94;5095097;28;20027;-59
2023/01/26 01:32:20;;;;;;;111.63;69.77;;;;;;;-1.43;100.00;102372.66;5095052;28;20506;-58
2023/01/26 01:34:47;;;;;;;111.20;70.27;;;;;;;-1.42;100.00;102365.69;5110884;28;20028;-59
2023/01/26 01:37:12;;;;;;;111.37;70.40;;;;;;;-1.46;100.00;102366.53;5115150;28;20020;-58
2023/01/26 01:39:38;;;;;;;109.37;69.33;;;;;;;-1.45;100.00;102370.88;5097597;28;20483;-58
2023/01/26 01:42:03;;;;;;;110.23;70.83;;;;;;;-1.43;100.00;102370.03;5094977;28;20054;-58
2023/01/26 01:44:31;;;;;;;108.37;68.57;;;;;;;-1.53;100.00;102367.28;5094947;28;20387;-58
2023/01/26 01:47:01;;;;;;;116.23;71.57;;;;;;;-1.50;100.00;102370.84;5098845;28;20026;-58
2023/01/26 01:49:37;;;;;;;112.40;69.28;;;;;;;-1.50;100.00;102368.22;5115116;28;20103;-59
2023/01/26 01:52:09;;;;;;;111.53;71.47;;;;;;;-1.49;100.00;102374.31;5096857;28;20077;-58
2023/01/26 01:54:42;;;;;;;114.07;69.47;;;;;;;-1.53;100.00;102375.13;5114311;28;20046;-58
2023/01/26 01:57:14;;;;;;;115.83;69.17;;;;;;;-1.57;100.00;102376.81;5076079;28;20020;-59
2023/01/26 01:59:50;;;;;;;109.03;67.17;;;;;;;-1.53;100.00;102380.34;5076297;28;20056;-58
2023/01/26 02:02:19;;;;;;;111.87;69.47;;;;;;;-1.47;100.00;102370.88;5094640;28;20024;-58
2023/01/26 02:04:44;;;;;;;107.60;67.97;;;;;;;-1.46;100.00;102371.75;5094301;28;20028;-58
2023/01/26 02:07:11;;;;;;;114.93;70.63;;;;;;;-1.45;100.00;102357.81;5094282;28;20028;-58
2023/01/26 02:12:28;;;;;;;110.77;68.77;;;;;;;-1.44;100.00;102367.41;5113371;28;20038;-58
2023/01/26 02:14:54;;;;;;;115.83;68.83;;;;;;;-1.39;100.00;102352.69;5094397;28;20023;-59
2023/01/26 02:17:19;;;;;;;112.90;69.83;;;;;;;-1.40;100.00;102354.41;5103491;28;20031;-58
2023/01/26 02:20:00;;;;;;;115.50;68.67;;;;;;;-1.38;100.00;102354.44;5112558;28;20045;-59
2023/01/26 02:22:53;;;;;;;107.17;66.93;;;;;;;-1.30;100.00;102344.06;5089587;28;20020;-58
2023/01/26 02:25:52;;;;;;;114.53;68.87;;;;;;;-1.30;100.00;102342.31;5076601;28;20028;-59
2023/01/26 02:28:21;;;;;;;108.18;65.63;;;;;;;-1.30;100.00;102344.06;5082452;28;20523;-58
2023/01/26 02:30:48;;;;;;;109.53;67.13;;;;;;;-1.32;100.00;102335.34;5094829;28;20028;-58
2023/01/26 02:33:20;;;;;;;108.33;64.63;;;;;;;-1.31;100.00;102339.72;5111165;28;20020;-59
2023/01/26 02:35:48;;;;;;;106.80;64.53;;;;;;;-1.32;100.00;102338.84;5114142;28;20027;-59
2023/01/26 02:38:14;;;;;;;106.27;64.50;;;;;;;-1.35;100.00;102327.47;5095799;28;20112;-59
2023/01/26 02:40:47;;;;;;;112.03;66.93;;;;;;;-1.28;100.00;102340.63;5084228;28;20054;-58
2023/01/26 02:43:15;;;;;;;111.47;66.90;;;;;;;-1.29;100.00;102338.88;5093648;28;20394;-59
2023/01/26 02:45:42;;;;;;;109.90;65.93;;;;;;;-1.29;100.00;102343.22;5075810;28;20134;-59
2023/01/26 02:48:08;;;;;;;109.73;67.17;;;;;;;-1.24;100.00;102337.16;5093739;28;20028;-58
2023/01/26 02:50:33;;;;;;;106.87;65.60;;;;;;;-1.27;100.00;102337.13;5093495;28;20543;-58
2023/01/26 02:53:00;;;;;;;105.50;64.30;;;;;;;-1.26;100.00;102331.06;5092572;28;20039;-58
2023/01/26 02:55:28;;;;;;;108.53;64.77;;;;;;;-1.27;100.00;102328.44;5091644;28;20490;-58
2023/01/26 02:57:59;;;;;;;105.83;63.27;;;;;;;-1.24;100.00;102334.56;5092121;28;20024;-59
2023/01/26 03:00:30;;;;;;;101.90;64.33;;;;;;;-1.20;100.00;102338.09;5075365;28;20457;-59
2023/01/26 03:03:00;;;;;;;106.90;65.07;;;;;;;-1.25;100.00;102330.22;5092838;28;20051;-59
2023/01/26 03:05:31;;;;;;;105.20;62.28;;;;;;;-1.22;100.00;102329.38;5081280;28;20103;-59
2023/01/26 03:07:56;;;;;;;103.53;64.20;;;;;;;-1.23;100.00;102330.22;5113200;28;20131;-58
2023/01/26 03:10:24;;;;;;;103.53;63.63;;;;;;;-1.18;100.00;102313.75;5105065;28;20475;-58
2023/01/26 03:12:49;;;;;;;98.87;61.97;;;;;;;-1.22;100.00;102319.78;5092993;28;20051;-59
2023/01/26 03:27:25;;;;;;;98.80;59.97;;;;;;;-1.16;100.00;102329.41;5093127;28;20129;-59
2023/01/26 03:29:21;;;;;;;95.00;60.20;;;;;;;-1.20;100.00;102327.66;5101662;28;20097;-59
2023/01/26 03:31:47;;;;;;;103.13;62.60;;;;;;;-1.17;100.00;102325.06;5112629;28;20470;-59
2023/01/26 03:34:12;;;;;;;93.87;60.17;;;;;;;-1.14;100.00;102325.09;5112935;28;20023;-58
2023/01/26 03:36:37;;;;;;;94.43;61.00;;;;;;;-1.06;100.00;102315.59;5094610;28;20016;-59
2023/01/26 03:39:04;;;;;;;90.70;58.07;;;;;;;-1.17;100.00;102320.72;5092103;28;20024;-59
2023/01/26 03:57:55;;;;;;;93.63;56.77;;;;;;;-1.01;100.00;102303.44;5092441;28;20039;-58
2023/01/26 04:00:23;;;;;;;91.17;57.27;;;;;;;-1.03;100.00;102305.19;5092411;28;20426;-59
2023/01/26 04:08:49;;;;;;;90.77;55.60;;;;;;;-0.95;100.00;102298.25;5091868;28;20047;-59
2023/01/26 04:11:07;;;;;;;93.60;56.73;;;;;;;-0.98;100.00;102300.84;5088662;28;20067;-59
2023/01/26 04:21:44;;;;;;;88.27;53.83;;;;;;;-0.81;100.00;102311.44;5092051;28;20035;-59
2023/01/26 04:24:12;;;;;;;86.70;53.87;;;;;;;-0.80;100.00;102307.09;5107876;28;20024;-59
2023/01/26 04:26:41;;;;;;;81.13;51.50;;;;;;;-0.87;100.00;102303.56;5112390;28;20432;-59
2023/01/26 04:29:12;;;;;;;82.70;51.03;;;;;;;-0.87;100.00;102294.84;5092276;28;20020;-59
2023/01/26 04:31:39;;;;;;;89.60;52.97;;;;;;;-0.79;100.00;102303.63;5112869;28;20042;-59
2023/01/26 04:34:09;;;;;;;85.07;51.77;;;;;;;-0.80;100.00;102299.25;5109108;28;20458;-59
2023/01/26 04:36:34;;;;;;;82.32;48.85;;;;;;;-0.79;100.00;102296.66;5108735;28;20023;-59
2023/01/26 04:39:02;;;;;;;80.87;49.03;;;;;;;-0.79;100.00;102301.03;5084068;28;20091;-59
2023/01/26 04:41:29;;;;;;;80.77;49.37;;;;;;;-0.75;100.00;102298.41;5112538;28;20031;-58
2023/01/26 04:43:54;;;;;;;77.57;46.10;;;;;;;-0.72;100.00;102302.78;5075731;28;20028;-58
2023/01/26 04:46:20;;;;;;;73.00;45.77;;;;;;;-0.75;100.00;102298.41;5095399;28;20028;-59
2023/01/26 04:48:48;;;;;;;74.63;44.90;;;;;;;-0.73;100.00;102294.09;5107919;28;20048;-59
2023/01/26 04:51:19;;;;;;;73.07;45.17;;;;;;;-0.69;100.00;102305.44;5108768;28;20020;-61
2023/01/26 04:53:45;;;;;;;78.20;47.23;;;;;;;-0.66;100.00;102304.56;5073128;28;20022;-59
2023/01/26 04:56:43;;;;;;;73.30;45.43;;;;;;;-0.60;100.00;102302.88;5091815;28;20020;-59
2023/01/26 04:59:10;;;;;;;71.73;44.57;;;;;;;-0.62;100.00;102306.34;5019092;28;20134;-59
2023/01/26 05:01:35;;;;;;;71.67;44.90;;;;;;;-0.62;100.00;102288.91;5073878;28;20039;-58
2023/01/26 05:04:02;;;;;;;70.23;44.20;;;;;;;-0.64;100.00;102301.13;5103009;28;20032;-59
2023/01/26 05:06:29;;;;;;;67.20;42.37;;;;;;;-0.63;100.00;102300.25;5091601;28;20073;-59
2023/01/26 05:08:55;;;;;;;65.27;41.37;;;;;;;-0.60;100.00;102299.41;5090987;28;20044;-58
2023/01/26 05:11:20;;;;;;;70.10;41.13;;;;;;;-0.70;100.00;102285.41;5073463;28;20049;-59
2023/01/26 05:13:46;;;;;;;65.17;40.67;;;;;;;-0.55;100.00;102298.56;5073252;28;20028;-59
2023/01/26 05:16:13;;;;;;;64.17;40.43;;;;;;;-0.62;100.00;102295.88;5091479;28;20130;-59
2023/01/26 05:18:40;;;;;;;63.77;40.40;;;;;;;-0.66;100.00;102287.16;5091481;28;20052;-58
2023/01/26 05:21:05;;;;;;;63.93;41.10;;;;;;;-0.62;100.00;102294.13;5093341;28;20096;-58
2023/01/26 05:23:30;;;;;;;62.50;40.23;;;;;;;-0.63;100.00;102294.16;5111610;28;20083;-59
2023/01/26 05:25:56;;;;;;;64.27;40.77;;;;;;;-0.61;100.00;102293.31;5111727;28;20027;-58
2023/01/26 05:28:21;;;;;;;60.40;38.07;;;;;;;-0.60;100.00;102287.19;5111671;28;20031;-59
2023/01/26 05:30:47;;;;;;;62.73;40.20;;;;;;;-0.62;100.00;102286.31;5111759;28;20484;-59
2023/01/26 05:33:12;;;;;;;62.93;40.13;;;;;;;-0.60;100.00;102291.56;5114871;28;20045;-59
2023/01/26 05:35:38;;;;;;;65.70;40.37;;;;;;;-0.52;100.00;102305.56;5096430;28;20019;-59
2023/01/26 05:38:03;;;;;;;63.20;39.27;;;;;;;-0.51;100.00;102299.44;5093686;28;20463;-58
2023/01/26 05:40:29;;;;;;;64.50;40.17;;;;;;;-0.52;100.00;102303.81;5102812;28;20511;-59
2023/01/26 05:42:54;;;;;;;62.33;39.30;;;;;;;-0.52;100.00;102303.81;5115499;28;20042;-59
2023/01/26 05:45:20;;;;;;;62.83;39.70;;;;;;;-0.58;100.00;102298.53;5096905;28;20059;-58
2023/01/26 05:47:47;;;;;;;60.60;37.37;;;;;;;-0.49;100.00;102303.81;5097023;28;20016;-59
2023/01/26 05:50:13;;;;;;;60.00;38.13;;;;;;;-0.52;100.00;102308.16;5114928;28;20047;-59
2023/01/26 05:52:39;;;;;;;59.37;37.43;;;;;;;-0.48;100.00;102309.91;5096555;28;20467;-59
2023/01/26 05:55:08;;;;;;;56.00;35.87;;;;;;;-0.46;100.00;102313.44;5094321;28;20028;-59
2023/01/26 05:57:34;;;;;;;60.70;37.87;;;;;;;-0.47;100.00;102306.47;5093244;28;20478;-59
2023/01/26 05:59:59;;;;;;;56.63;36.10;;;;;;;-0.48;100.00;102299.47;5093328;28;20027;-59
2023/01/26 06:02:27;;;;;;;59.80;37.83;;;;;;;-0.47;100.00;102306.47;5096136;28;20020;-59
2023/01/26 06:04:56;;;;;;;57.33;35.87;;;;;;;-0.43;100.00;102308.22;5107157;28;20023;-58
2023/01/26 06:07:21;;;;;;;55.93;35.67;;;;;;;-0.42;100.00;102307.34;5105447;28;20028;-57
2023/01/26 06:09:48;;;;;;;57.07;35.33;;;;;;;-0.44;100.00;102311.72;5107445;28;20119;-59
2023/01/26 06:12:18;;;;;;;56.17;35.70;;;;;;;-0.41;100.00;102313.44;5105604;28;20160;-58
2023/01/26 06:14:43;;;;;;;61.33;38.28;;;;;;;-0.46;100.00;102318.66;5094278;28;20080;-58
2023/01/26 06:17:09;;;;;;;57.83;36.40;;;;;;;-0.43;100.00;102325.63;5089805;28;20012;-58
2023/01/26 06:19:36;;;;;;;61.07;37.93;;;;;;;-0.46;100.00;102322.13;5113420;28;20059;-58
2023/01/26 06:22:06;;;;;;;57.13;36.63;;;;;;;-0.47;100.00;102322.13;5114671;28;20049;-58
2023/01/26 06:24:33;;;;;;;55.13;35.00;;;;;;;-0.41;100.00;102329.13;5113975;28;20393;-59
2023/01/26 06:26:58;;;;;;;60.83;37.50;;;;;;;-0.46;100.00;102323.88;5113159;28;20099;-57
2023/01/26 06:29:24;;;;;;;55.93;35.07;;;;;;;-0.48;100.00;102310.78;5075808;28;20063;-58
2023/01/26 06:31:49;;;;;;;54.87;35.77;;;;;;;-0.38;100.00;102311.75;5093996;28;20024;-59
2023/01/26 06:34:14;;;;;;;57.40;34.80;;;;;;;-0.38;100.00;102319.59;5105244;28;20522;-58
2023/01/26 06:36:40;;;;;;;55.47;35.40;;;;;;;-0.35;100.00;102318.72;5114309;28;20032;-58
2023/01/26 06:39:06;;;;;;;58.30;35.23;;;;;;;-0.52;100.00;102301.19;5113515;28;20024;-58
2023/01/26 06:41:31;;;;;;;54.03;33.93;;;;;;;-0.41;100.00;102314.34;5096039;28;20024;-58
2023/01/26 06:43:57;;;;;;;57.57;33.93;;;;;;;-0.34;100.00;102323.06;5110380;28;20474;-58
2023/01/26 06:46:22;;;;;;;55.70;33.87;;;;;;;-0.34;100.00;102325.69;5084629;28;20135;-58
2023/01/26 06:48:48;;;;;;;56.03;34.73;;;;;;;-0.42;100.00;102317.78;5099694;28;20034;-58
2023/01/26 06:51:19;;;;;;;59.67;35.43;;;;;;;-0.35;100.00;102324.81;5109900;28;20425;-58
2023/01/26 06:53:56;;;;;;;56.80;33.83;;;;;;;-0.34;100.00;102330.91;5104391;28;20398;-59
2023/01/26 06:56:26;;;;;;;58.40;35.87;;;;;;;-0.41;100.00;102316.94;5111945;28;20066;-59
2023/01/26 06:58:54;;;;;;;60.67;36.60;;;;;;;-0.38;100.00;102330.03;5108178;28;20020;-59
2023/01/26 07:01:22;;;;;;;59.50;36.63;;;;;;;-0.31;100.00;102344.88;5098775;28;20543;-59
2023/01/26 07:03:51;;;;;;;57.43;35.23;;;;;;;-0.39;100.00;102332.63;5101517;28;20021;-59
2023/01/26 07:06:16;;;;;;;59.13;35.30;;;;;;;-0.31;100.00;102334.41;5091728;28;20068;-58
2023/01/26 07:08:44;;;;;;;58.90;35.90;;;;;;;-0.31;100.00;102329.19;5080687;28;20491;-58
2023/01/26 07:11:11;;;;;;;57.97;35.67;;;;;;;-0.31;100.00;102329.19;5094190;28;20032;-58
2023/01/26 07:13:37;;;;;;;59.47;34.73;;;;;;;-0.29;100.00;102337.06;5074808;28;20024;-58
2023/01/26 07:16:07;;;;;;;60.47;35.27;;;;;;;-0.25;100.00;102338.81;5094630;28;20395;-58
2023/01/26 07:18:33;;;;;;;54.40;33.33;;;;;;;-0.26;100.00;102345.78;5092840;28;20062;-59
2023/01/26 07:21:06;;;;;;;59.23;34.67;;;;;;;-0.29;100.00;102340.53;5075032;28;20059;-58
2023/01/26 07:23:32;;;;;;;56.57;34.80;;;;;;;-0.30;100.00;102335.28;5092682;28;20109;-59
2023/01/26 07:25:59;;;;;;;61.93;35.63;;;;;;;-0.29;100.00;102347.50;5074840;28;20111;-58
2023/01/26 07:28:25;;;;;;;55.37;33.73;;;;;;;-0.26;100.00;102344.91;5094977;28;20490;-58
2023/01/26 07:30:52;;;;;;;57.50;33.67;;;;;;;-0.30;100.00;102349.22;5093040;28;20032;-58
2023/01/26 07:33:18;;;;;;;54.03;33.73;;;;;;;-0.31;100.00;102339.66;5096806;28;20576;-58
2023/01/26 07:35:45;;;;;;;55.30;34.47;;;;;;;-0.36;100.00;102341.34;5093688;28;20118;-58
2023/01/26 07:38:11;;;;;;;60.00;36.27;;;;;;;-0.25;100.00;102347.53;5092811;28;20039;-59
2023/01/26 07:40:36;;;;;;;61.67;35.97;;;;;;;-0.26;100.00;102351.00;5093244;28;20028;-58
2023/01/26 07:43:01;;;;;;;59.23;35.17;;;;;;;-0.25;100.00;102349.28;5104974;28;20030;-59
2023/01/26 07:45:27;;;;;;;58.03;35.80;;;;;;;-0.29;100.00;102337.06;5086408;28;20055;-59
2023/01/26 10:15:37;;;;;;;88.43;37.07;;;;;;;0.35;100.00;102397.50;5084877;27;1301153;-61
2023/01/26 10:18:06;;;;;;;86.30;41.50;;;;;;;0.41;100.00;102400.19;5108618;28;20133;-61
2023/01/26 10:20:41;;;;;;;88.67;46.07;;;;;;;0.48;100.00;102402.81;5107950;28;20047;-61
2023/01/26 10:23:15;;;;;;;97.23;45.70;;;;;;;0.46;100.00;102381.84;5108534;28;20024;-61
2023/01/26 10:25:43;;;;;;;85.93;44.73;;;;;;;0.49;100.00;102394.94;5108689;28;20020;-61
2023/01/26 10:28:17;;;;;;;88.43;44.80;;;;;;;0.58;100.00;102389.75;5108478;28;20114;-61
2023/01/26 10:30:45;;;;;;;89.80;44.07;;;;;;;0.64;100.00;102399.38;5108510;28;20051;-61
2023/01/26 10:33:26;;;;;;;84.97;41.40;;;;;;;0.69;100.00;102402.88;5108485;28;20016;-61
2023/01/26 10:35:52;;;;;;;88.30;42.83;;;;;;;0.69;100.00;102405.50;5107972;28;20433;-61
2023/01/26 10:38:33;;;;;;;95.43;43.67;;;;;;;0.76;100.00;102404.63;5108537;28;20363;-61
2023/01/26 10:41:02;;;;;;;91.17;43.63;;;;;;;0.77;100.00;102409.03;5108085;28;20020;-61
2023/01/26 10:43:34;;;;;;;100.32;45.22;;;;;;;0.79;100.00;102409.00;5108423;28;20058;-61
2023/01/26 10:46:02;;;;;;;96.13;42.70;;;;;;;0.78;100.00;102396.78;5108086;28;20483;-61
2023/01/26 10:48:28;;;;;;;94.80;42.07;;;;;;;0.93;100.00;102404.69;5108476;28;20032;-61
2023/01/26 10:50:54;;;;;;;92.50;41.27;;;;;;;0.93;100.00;102409.91;5089211;28;20030;-61
2023/01/26 10:53:28;;;;;;;93.57;43.33;;;;;;;0.98;100.00;102402.09;5107778;28;20485;-61
2023/01/26 10:56:00;;;;;;;87.10;41.90;;;;;;;1.02;100.00;102416.91;5108107;28;20020;-61
2023/01/26 10:58:48;;;;;;;99.60;44.97;;;;;;;1.08;100.00;102409.06;5107860;28;20195;-61
2023/01/26 11:01:17;;;;;;;88.40;42.97;;;;;;;1.11;100.00;102409.06;5073861;28;20127;-61
2023/01/26 11:04:00;;;;;;;94.37;45.40;;;;;;;1.16;100.00;102399.47;5087148;28;20020;-61
2023/01/26 11:06:30;;;;;;;100.43;45.83;;;;;;;1.21;100.00;102399.50;5086513;28;20487;-61
2023/01/26 11:09:18;;;;;;;96.50;45.17;;;;;;;1.33;100.00;102394.25;5087500;28;20368;-61
2023/01/26 11:11:57;;;;;;;110.83;45.93;;;;;;;1.40;100.00;102396.00;5086914;28;20499;-61
2023/01/26 11:14:23;;;;;;;99.67;45.23;;;;;;;1.49;100.00;102403.84;5082637;28;20045;-60
2023/01/26 11:16:56;;;;;;;100.10;44.50;;;;;;;1.52;100.00;102390.75;5073804;28;20039;-60
2023/01/26 11:19:46;;;;;;;111.37;45.70;;;;;;;1.59;100.00;102396.88;5073484;28;20017;-60
2023/01/26 11:22:22;;;;;;;112.03;43.67;;;;;;;1.57;100.00;102389.00;5055336;28;20039;-60
2023/01/26 11:25:11;;;;;;;103.03;44.27;;;;;;;1.69;100.00;102392.47;5073850;28;20051;-60
2023/01/26 11:27:36;;;;;;;101.63;44.33;;;;;;;1.76;100.00;102402.94;5073281;28;20148;-60
2023/01/26 11:30:23;;;;;;;110.82;44.35;;;;;;;1.85;100.00;102395.94;5057410;28;20108;-60
2023/01/26 11:32:48;;;;;;;97.95;41.33;;;;;;;1.91;100.00;102395.94;5066277;28;20040;-60
2023/01/26 11:35:25;;;;;;;108.75;44.08;;;;;;;2.02;100.00;102402.03;5093483;28;20024;-61
2023/01/26 11:37:59;;;;;;;112.75;44.03;;;;;;;2.11;100.00;102404.63;5096551;28;20479;-60
2023/01/26 11:40:37;;;;;;;105.37;43.83;;;;;;;2.21;100.00;102403.75;5090479;28;20024;-61
2023/01/26 11:43:24;;;;;;;102.20;44.33;;;;;;;2.37;100.00;102401.03;5093621;28;20387;-60
2023/01/26 11:45:55;;;;;;;97.20;40.80;;;;;;;2.48;100.00;102394.00;5055232;28;20078;-61
2023/01/26 11:48:39;;;;;;;95.97;40.23;;;;;;;2.60;100.00;102393.94;5064314;28;20109;-61
2023/01/26 11:52:00;;;;;;;96.85;41.42;;;;;;;2.74;100.00;102393.88;5091647;28;20035;-61
2023/01/26 11:54:35;;;;;;;96.97;39.60;;;;;;;2.88;100.00;102380.63;5013328;28;20043;-61
2023/01/26 11:57:26;;;;;;;88.97;40.33;;;;;;;2.99;100.00;102372.69;5055076;28;20058;-61
2023/01/26 12:00:04;;;;;;;85.20;40.42;;;;;;;3.14;100.00;102369.94;5077120;28;20019;-61
2023/01/26 12:02:31;;;;;;;89.28;38.85;;;;;;;3.61;100.00;102371.28;5074637;28;20101;-61
2023/01/26 12:05:01;;;;;;;83.15;36.35;;;;;;;4.09;100.00;102369.06;5075322;28;20069;-63
2023/01/26 12:07:50;;;;;;;76.93;35.22;;;;;;;4.42;100.00;102356.34;5092737;28;20016;-61
2023/01/26 12:10:17;;;;;;;70.55;33.17;;;;;;;5.06;100.00;102360.72;5079455;28;20059;-61
2023/01/26 12:12:52;;;;;;;66.10;30.35;;;;;;;5.72;100.00;102361.34;5084234;28;20086;-61
2023/01/26 12:15:20;;;;;;;57.25;25.70;;;;;;;6.27;99.75;102362.94;5075405;28;20080;-63
2023/01/26 12:17:54;;;;;;;53.50;24.25;;;;;;;6.64;98.26;102355.06;5093541;28;20483;-61
2023/01/26 12:20:46;;;;;;;49.47;22.05;;;;;;;6.68;95.79;102346.19;5093210;28;20540;-61
2023/01/26 12:23:25;;;;;;;52.55;21.63;;;;;;;6.60;95.96;102359.56;5093500;28;20028;-61
2023/01/26 12:26:17;;;;;;;49.45;21.90;;;;;;;6.48;96.70;102348.41;5092775;28;20028;-61
2023/01/26 12:29:08;;;;;;;50.95;20.13;;;;;;;6.14;98.26;102354.38;5093511;28;20037;-61
2023/01/26 12:31:53;;;;;;;53.80;20.63;;;;;;;5.99;99.28;102338.84;5092988;28;20103;-61
2023/01/26 12:34:26;;;;;;;43.60;15.20;;;;;;;5.77;100.00;102338.38;5093093;28;20425;-61
2023/01/26 12:37:09;;;;;;;41.65;15.20;;;;;;;5.61;100.00;102335.13;5093008;28;20055;-61
2023/01/26 12:39:52;;;;;;;36.30;14.48;;;;;;;5.50;100.00;102331.81;5093107;28;20035;-61
2023/01/26 12:42:42;;;;;;;41.78;14.65;;;;;;;5.57;100.00;102322.91;5091953;28;20020;-61
2023/01/26 12:45:13;;;;;;;;;;;;;;;5.83;100.00;102320.63;5075090;28;20421;-61
2023/01/26 12:48:19;;;;;;;41.17;13.18;;;;;;;6.02;100.00;102322.94;5074814;28;19908;-61
2023/01/26 12:51:01;;;;;;;40.83;13.30;;;;;;;5.93;100.00;102324.00;5092297;28;20028;-61
2023/01/26 12:53:34;;;;;;;31.58;13.15;;;;;;;5.82;100.00;102320.66;5093097;28;20035;-61
2023/01/26 12:56:11;;;;;;;33.35;12.73;;;;;;;5.81;100.00;102313.66;5092875;28;20383;-62
2023/01/26 12:58:43;;;;;;;32.35;12.25;;;;;;;5.83;100.00;102311.84;5074680;28;20036;-61
2023/01/26 13:01:11;;;;;;;39.28;11.73;;;;;;;5.73;100.00;102302.34;5092218;28;20439;-61
2023/01/26 13:03:41;;;;;;;43.72;13.45;;;;;;;5.67;100.00;102313.91;5092691;28;20024;-61
2023/01/26 13:06:09;;;;;;;39.63;12.48;;;;;;;5.60;100.00;102309.66;5092130;28;20020;-61
2023/01/26 13:08:34;;;;;;;41.28;11.88;;;;;;;5.57;100.00;102305.28;5092661;28;20016;-61
2023/01/26 13:11:08;;;;;;;36.92;12.70;;;;;;;5.53;100.00;102308.91;5092362;28;20031;-61
2023/01/26 13:13:37;;;;;;;38.38;12.35;;;;;;;5.50;100.00;102293.13;5092605;28;20047;-61
2023/01/26 13:16:14;;;;;;;30.80;11.85;;;;;;;5.55;100.00;102303.56;5092262;28;20039;-62
2023/01/26 13:18:50;;;;;;;38.83;12.30;;;;;;;5.49;100.00;102303.69;5088464;28;20043;-62
2023/01/26 13:21:33;;;;;;;39.42;11.27;;;;;;;5.50;100.00;102305.44;5080189;28;20081;-62
2023/01/26 13:23:59;;;;;;;43.75;11.85;;;;;;;5.53;100.00;102302.72;5056072;28;20393;-63
2023/01/26 13:26:30;;;;;;;34.70;10.88;;;;;;;5.68;100.00;102303.31;5072049;28;20036;-62
2023/01/26 13:29:21;;;;;;;46.80;11.13;;;;;;;5.79;100.00;102296.97;5071997;28;20028;-62
2023/01/26 13:31:47;;;;;;;32.50;9.50;;;;;;;5.77;100.00;102298.78;5071742;28;20404;-62
2023/01/26 13:34:14;;;;;;;28.45;9.90;;;;;;;6.00;100.00;102295.69;5071952;28;20036;-62
2023/01/26 13:36:44;;;;;;;25.77;8.40;;;;;;;6.52;100.00;102295.41;5071340;28;20542;-62
2023/01/26 13:39:28;;;;;;;36.50;9.77;;;;;;;8.00;98.46;102288.97;5071807;28;20029;-62
2023/01/26 13:41:56;;;;;;;34.88;9.25;;;;;;;8.55;89.72;102292.63;5072093;28;20230;-62
2023/01/26 13:44:44;;;;;;;30.75;9.35;;;;;;;7.88;92.03;102283.13;5071612;28;20020;-62
2023/01/26 13:47:20;;;;;;;33.42;7.68;;;;;;;7.33;91.93;102294.38;5053720;28;20052;-62
2023/01/26 13:49:45;;;;;;;27.65;6.88;;;;;;;6.90;92.17;102296.28;5071822;28;20020;-62
2023/01/26 13:52:15;;;;;;;27.80;7.93;;;;;;;6.62;94.01;102301.38;5071286;28;20056;-63
2023/01/26 13:54:43;;;;;;;29.65;8.48;;;;;;;6.40;94.09;102308.91;5071813;28;20025;-62
2023/01/26 13:57:19;;;;;;;25.42;7.00;;;;;;;6.35;95.09;102306.41;5053937;28;20016;-62
2023/01/26 13:59:53;;;;;;;24.80;7.55;;;;;;;6.34;95.27;102302.00;5074548;28;20027;-62
2023/01/26 14:02:34;;;;;;;28.23;7.32;;;;;;;6.27;95.74;102299.53;5073657;28;20046;-61
2023/01/26 14:05:00;;;;;;;28.58;6.95;;;;;;;6.25;96.24;102301.34;5091611;28;20020;-61
2023/01/26 14:07:39;;;;;;;27.90;6.95;;;;;;;6.23;96.46;102304.00;5092059;28;20410;-62
2023/01/26 14:10:08;;;;;;;23.52;6.97;;;;;;;6.17;96.72;102306.78;5091563;28;20028;-62
2023/01/26 14:12:47;;;;;;;29.02;7.95;;;;;;;6.16;97.54;102310.31;5073326;28;20455;-62
2023/01/26 14:15:25;;;;;;;26.85;7.20;;;;;;;6.14;97.46;102309.47;5091799;28;20051;-62
2023/01/26 14:17:59;;;;;;;24.08;7.15;;;;;;;6.15;97.79;102308.59;5091913;28;20024;-62
2023/01/26 14:20:27;;;;;;;25.00;6.97;;;;;;;6.08;96.98;102312.25;5091199;28;20077;-62
2023/01/26 14:23:12;;;;;;;22.70;6.30;;;;;;;6.10;95.60;102316.59;5073628;28;20024;-62
2023/01/26 14:25:44;;;;;;;19.63;5.93;;;;;;;6.42;94.45;102309.75;5081031;28;20536;-61
2023/01/26 14:28:21;;;;;;;20.35;6.38;;;;;;;6.78;91.90;102320.41;5079405;28;20098;-62
2023/01/26 14:30:51;;;;;;;27.88;6.65;;;;;;;6.51;91.53;102312.19;5080573;28;20078;-62
2023/01/26 14:33:17;;;;;;;19.98;6.43;;;;;;;6.20;90.94;102308.47;5090482;28;20043;-62